sensor_id;sensor_type;location;lat;lon;timestamp;noise_LAeq;noise_LA_min;noise_LA_max;noise_LA01;noise_LA95
72276;Laerm;61204;49.980;8.358;2023-05-20T00:00:44;45.72;39.40;63.61;;
72276;Laerm;61204;49.980;8.358;2023-05-20T00:03:13;51.66;39.28;72.22;;
72276;Laerm;61204;49.980;8.358;2023-05-20T00:05:39;47.41;38.94;68.44;;
72276;Laerm;61204;49.980;8.358;2023-05-20T00:08:04;49.29;39.18;67.40;;
72276;Laerm;61204;49.980;8.358;2023-05-20T00:10:39;50.10;38.99;70.25;;
72276;Laerm;61204;49.980;8.358;2023-05-20T00:13:05;50.41;38.48;69.37;;
72276;Laerm;61204;49.980;8.358;2023-05-20T00:15:32;49.37;38.53;70.05;;
72276;Laerm;61204;49.980;8.358;2023-05-20T00:18:00;47.31;39.45;67.01;;
72276;Laerm;61204;49.980;8.358;2023-05-20T00:20:29;46.58;37.95;66.42;;
72276;Laerm;61204;49.980;8.358;2023-05-20T00:22:54;46.20;39.04;62.33;;
72276;Laerm;61204;49.980;8.358;2023-05-20T00:25:22;49.53;37.02;72.81;;
72276;Laerm;61204;49.980;8.358;2023-05-20T00:27:47;50.12;39.25;65.38;;
72276;Laerm;61204;49.980;8.358;2023-05-20T00:30:13;48.02;38.84;68.41;;
72276;Laerm;61204;49.980;8.358;2023-05-20T00:32:39;45.10;39.19;63.53;;
72276;Laerm;61204;49.980;8.358;2023-05-20T00:35:05;47.36;38.18;64.61;;
72276;Laerm;61204;49.980;8.358;2023-05-20T00:37:31;43.97;37.80;54.99;;
72276;Laerm;61204;49.980;8.358;2023-05-20T00:39:59;50.53;40.78;69.74;;
72276;Laerm;61204;49.980;8.358;2023-05-20T00:42:27;46.22;38.50;64.50;;
72276;Laerm;61204;49.980;8.358;2023-05-20T00:44:54;45.29;38.87;61.18;;
72276;Laerm;61204;49.980;8.358;2023-05-20T00:47:28;46.17;39.00;62.75;;
72276;Laerm;61204;49.980;8.358;2023-05-20T00:49:54;52.52;38.07;71.99;;
72276;Laerm;61204;49.980;8.358;2023-05-20T00:52:23;45.79;37.69;65.61;;
72276;Laerm;61204;49.980;8.358;2023-05-20T00:54:54;47.14;38.64;68.11;;
72276;Laerm;61204;49.980;8.358;2023-05-20T00:57:20;45.40;38.65;64.21;;
72276;Laerm;61204;49.980;8.358;2023-05-20T00:59:45;49.82;38.22;74.16;;
72276;Laerm;61204;49.980;8.358;2023-05-20T01:02:11;46.17;38.93;64.44;;
72276;Laerm;61204;49.980;8.358;2023-05-20T01:04:37;48.48;38.72;71.04;;
72276;Laerm;61204;49.980;8.358;2023-05-20T01:07:05;52.72;39.52;71.08;;
72276;Laerm;61204;49.980;8.358;2023-05-20T01:09:32;44.95;39.07;64.02;;
72276;Laerm;61204;49.980;8.358;2023-05-20T01:12:15;47.54;39.34;66.65;;
72276;Laerm;61204;49.980;8.358;2023-05-20T01:14:49;44.64;40.04;60.32;;
72276;Laerm;61204;49.980;8.358;2023-05-20T01:17:17;49.46;39.84;69.56;;
72276;Laerm;61204;49.980;8.358;2023-05-20T01:19:46;50.56;40.15;74.95;;
72276;Laerm;61204;49.980;8.358;2023-05-20T01:22:14;48.64;38.35;68.21;;
72276;Laerm;61204;49.980;8.358;2023-05-20T01:24:45;45.45;37.14;61.26;;
72276;Laerm;61204;49.980;8.358;2023-05-20T01:27:13;43.89;37.99;57.50;;
72276;Laerm;61204;49.980;8.358;2023-05-20T01:29:40;48.73;38.86;69.84;;
72276;Laerm;61204;49.980;8.358;2023-05-20T01:32:37;46.03;40.02;59.70;;
72276;Laerm;61204;49.980;8.358;2023-05-20T01:35:05;42.92;37.51;53.95;;
72276;Laerm;61204;49.980;8.358;2023-05-20T01:37:34;43.66;37.41;55.62;;
72276;Laerm;61204;49.980;8.358;2023-05-20T01:40:03;43.50;37.17;61.18;;
72276;Laerm;61204;49.980;8.358;2023-05-20T01:42:30;41.87;37.01;55.85;;
72276;Laerm;61204;49.980;8.358;2023-05-20T01:44:55;43.68;38.08;55.81;;
72276;Laerm;61204;49.980;8.358;2023-05-20T01:47:21;49.86;39.60;60.93;;
72276;Laerm;61204;49.980;8.358;2023-05-20T01:49:46;46.39;38.44;59.53;;
72276;Laerm;61204;49.980;8.358;2023-05-20T01:52:12;45.47;37.19;61.51;;
72276;Laerm;61204;49.980;8.358;2023-05-20T01:54:38;46.30;39.62;58.91;;
72276;Laerm;61204;49.980;8.358;2023-05-20T01:57:05;44.94;40.08;62.02;;
72276;Laerm;61204;49.980;8.358;2023-05-20T01:59:31;44.02;37.15;62.58;;
72276;Laerm;61204;49.980;8.358;2023-05-20T02:01:56;44.76;36.73;63.70;;
72276;Laerm;61204;49.980;8.358;2023-05-20T02:04:21;42.59;38.27;56.72;;
72276;Laerm;61204;49.980;8.358;2023-05-20T02:06:47;43.29;38.75;52.78;;
72276;Laerm;61204;49.980;8.358;2023-05-20T02:09:13;45.18;39.00;62.40;;
72276;Laerm;61204;49.980;8.358;2023-05-20T02:11:39;42.84;38.15;53.61;;
72276;Laerm;61204;49.980;8.358;2023-05-20T02:14:04;44.77;37.94;56.44;;
72276;Laerm;61204;49.980;8.358;2023-05-20T02:16:30;53.67;38.72;69.69;;
72276;Laerm;61204;49.980;8.358;2023-05-20T02:18:56;44.05;39.44;54.07;;
72276;Laerm;61204;49.980;8.358;2023-05-20T02:21:23;44.00;37.73;57.16;;
72276;Laerm;61204;49.980;8.358;2023-05-20T02:23:53;42.85;37.45;58.56;;
72276;Laerm;61204;49.980;8.358;2023-05-20T02:26:20;41.79;36.60;59.32;;
72276;Laerm;61204;49.980;8.358;2023-05-20T02:28:46;43.50;38.75;50.68;;
72276;Laerm;61204;49.980;8.358;2023-05-20T02:31:14;44.76;38.59;67.35;;
72276;Laerm;61204;49.980;8.358;2023-05-20T02:33:40;46.81;39.71;71.13;;
72276;Laerm;61204;49.980;8.358;2023-05-20T02:36:08;46.35;38.13;61.84;;
72276;Laerm;61204;49.980;8.358;2023-05-20T02:38:34;50.48;39.37;70.06;;
72276;Laerm;61204;49.980;8.358;2023-05-20T02:41:00;58.32;38.76;73.77;;
72276;Laerm;61204;49.980;8.358;2023-05-20T02:43:25;63.88;39.97;78.19;;
72276;Laerm;61204;49.980;8.358;2023-05-20T02:45:53;59.12;39.90;76.53;;
72276;Laerm;61204;49.980;8.358;2023-05-20T02:48:18;58.59;39.48;75.54;;
72276;Laerm;61204;49.980;8.358;2023-05-20T02:50:45;53.67;40.47;71.24;;
72276;Laerm;61204;49.980;8.358;2023-05-20T02:53:11;51.75;40.20;68.44;;
72276;Laerm;61204;49.980;8.358;2023-05-20T02:55:36;54.22;40.28;68.95;;
72276;Laerm;61204;49.980;8.358;2023-05-20T02:58:02;58.11;40.74;70.72;;
72276;Laerm;61204;49.980;8.358;2023-05-20T03:00:28;58.48;41.13;69.62;;
72276;Laerm;61204;49.980;8.358;2023-05-20T03:02:56;55.81;41.10;70.95;;
72276;Laerm;61204;49.980;8.358;2023-05-20T03:05:24;54.69;43.84;66.74;;
72276;Laerm;61204;49.980;8.358;2023-05-20T03:07:51;58.12;45.14;68.60;;
72276;Laerm;61204;49.980;8.358;2023-05-20T03:10:17;51.71;41.14;64.68;;
72276;Laerm;61204;49.980;8.358;2023-05-20T03:12:42;58.62;43.24;70.79;;
72276;Laerm;61204;49.980;8.358;2023-05-20T03:15:08;58.39;42.62;69.44;;
72276;Laerm;61204;49.980;8.358;2023-05-20T03:17:34;57.64;42.41;70.00;;
72276;Laerm;61204;49.980;8.358;2023-05-20T03:20:00;54.37;42.33;69.28;;
72276;Laerm;61204;49.980;8.358;2023-05-20T03:22:26;53.34;41.70;66.09;;
72276;Laerm;61204;49.980;8.358;2023-05-20T03:24:51;52.83;41.06;65.95;;
72276;Laerm;61204;49.980;8.358;2023-05-20T03:27:17;59.96;40.26;73.10;;
72276;Laerm;61204;49.980;8.358;2023-05-20T03:29:43;53.35;40.30;64.88;;
72276;Laerm;61204;49.980;8.358;2023-05-20T03:32:08;54.46;40.05;66.88;;
72276;Laerm;61204;49.980;8.358;2023-05-20T03:34:34;48.54;39.61;62.31;;
72276;Laerm;61204;49.980;8.358;2023-05-20T03:36:59;49.87;40.85;62.07;;
72276;Laerm;61204;49.980;8.358;2023-05-20T03:39:25;47.39;41.05;60.19;;
72276;Laerm;61204;49.980;8.358;2023-05-20T03:41:50;54.10;41.11;73.69;;
72276;Laerm;61204;49.980;8.358;2023-05-20T03:44:15;58.99;42.54;76.62;;
72276;Laerm;61204;49.980;8.358;2023-05-20T03:46:41;54.93;41.01;75.32;;
72276;Laerm;61204;49.980;8.358;2023-05-20T03:49:07;53.45;41.88;65.16;;
72276;Laerm;61204;49.980;8.358;2023-05-20T03:51:32;51.32;41.86;62.70;;
72276;Laerm;61204;49.980;8.358;2023-05-20T03:53:58;48.04;39.25;60.91;;
72276;Laerm;61204;49.980;8.358;2023-05-20T03:56:23;47.12;40.82;60.38;;
72276;Laerm;61204;49.980;8.358;2023-05-20T03:58:49;52.35;40.73;64.61;;
72276;Laerm;61204;49.980;8.358;2023-05-20T04:01:14;48.78;40.80;61.80;;
72276;Laerm;61204;49.980;8.358;2023-05-20T04:03:40;51.84;42.28;65.02;;
72276;Laerm;61204;49.980;8.358;2023-05-20T04:06:08;53.19;42.61;65.04;;
72276;Laerm;61204;49.980;8.358;2023-05-20T04:08:34;55.45;44.31;64.49;;
72276;Laerm;61204;49.980;8.358;2023-05-20T04:11:01;54.63;44.17;66.63;;
72276;Laerm;61204;49.980;8.358;2023-05-20T04:13:29;55.69;43.61;67.01;;
72276;Laerm;61204;49.980;8.358;2023-05-20T04:15:54;61.65;46.00;72.82;;
72276;Laerm;61204;49.980;8.358;2023-05-20T04:18:20;61.12;43.30;72.77;;
72276;Laerm;61204;49.980;8.358;2023-05-20T04:20:47;59.18;43.35;72.40;;
72276;Laerm;61204;49.980;8.358;2023-05-20T04:23:13;53.30;43.20;64.85;;
72276;Laerm;61204;49.980;8.358;2023-05-20T04:25:38;54.59;43.21;66.20;;
72276;Laerm;61204;49.980;8.358;2023-05-20T04:28:06;58.63;42.84;70.38;;
72276;Laerm;61204;49.980;8.358;2023-05-20T04:30:36;52.26;42.85;63.14;;
72276;Laerm;61204;49.980;8.358;2023-05-20T04:33:01;58.78;44.49;70.67;;
72276;Laerm;61204;49.980;8.358;2023-05-20T04:35:30;59.39;43.59;71.03;;
72276;Laerm;61204;49.980;8.358;2023-05-20T04:37:55;55.99;42.33;66.60;;
72276;Laerm;61204;49.980;8.358;2023-05-20T04:40:21;56.22;42.56;67.33;;
72276;Laerm;61204;49.980;8.358;2023-05-20T04:42:47;55.61;43.18;68.87;;
72276;Laerm;61204;49.980;8.358;2023-05-20T04:45:12;54.39;42.63;66.87;;
72276;Laerm;61204;49.980;8.358;2023-05-20T04:47:38;52.89;42.80;66.01;;
72276;Laerm;61204;49.980;8.358;2023-05-20T04:50:09;52.44;42.70;63.32;;
72276;Laerm;61204;49.980;8.358;2023-05-20T04:52:36;54.99;42.75;67.61;;
72276;Laerm;61204;49.980;8.358;2023-05-20T04:55:06;54.32;44.06;65.39;;
72276;Laerm;61204;49.980;8.358;2023-05-20T04:57:34;55.10;42.95;68.68;;
72276;Laerm;61204;49.980;8.358;2023-05-20T05:00:04;60.67;45.57;71.93;;
72276;Laerm;61204;49.980;8.358;2023-05-20T05:02:32;52.99;42.75;70.41;;
72276;Laerm;61204;49.980;8.358;2023-05-20T05:04:58;59.15;42.95;72.66;;
72276;Laerm;61204;49.980;8.358;2023-05-20T05:07:24;56.21;45.40;66.70;;
72276;Laerm;61204;49.980;8.358;2023-05-20T05:09:49;55.04;43.62;64.57;;
72276;Laerm;61204;49.980;8.358;2023-05-20T05:12:15;57.28;42.75;72.09;;
72276;Laerm;61204;49.980;8.358;2023-05-20T05:14:40;64.10;45.80;86.40;;
72276;Laerm;61204;49.980;8.358;2023-05-20T05:17:06;65.88;44.34;87.37;;
72276;Laerm;61204;49.980;8.358;2023-05-20T05:19:31;51.59;41.25;63.99;;
72276;Laerm;61204;49.980;8.358;2023-05-20T05:21:57;50.20;39.54;64.26;;
72276;Laerm;61204;49.980;8.358;2023-05-20T05:24:22;56.78;43.11;68.00;;
72276;Laerm;61204;49.980;8.358;2023-05-20T05:26:53;58.81;45.12;71.30;;
72276;Laerm;61204;49.980;8.358;2023-05-20T05:33:05;55.69;41.55;68.18;;
72276;Laerm;61204;49.980;8.358;2023-05-20T05:35:31;58.94;47.45;70.95;;
72276;Laerm;61204;49.980;8.358;2023-05-20T05:37:56;56.70;46.41;68.37;;
72276;Laerm;61204;49.980;8.358;2023-05-20T05:40:25;56.34;44.45;69.70;;
72276;Laerm;61204;49.980;8.358;2023-05-20T05:42:53;55.88;45.09;69.53;;
72276;Laerm;61204;49.980;8.358;2023-05-20T05:45:18;54.91;43.93;68.31;;
72276;Laerm;61204;49.980;8.358;2023-05-20T05:47:44;56.64;45.40;67.40;;
72276;Laerm;61204;49.980;8.358;2023-05-20T05:50:10;55.63;45.30;66.99;;
72276;Laerm;61204;49.980;8.358;2023-05-20T05:52:35;59.78;43.66;77.34;;
72276;Laerm;61204;49.980;8.358;2023-05-20T05:55:01;61.96;46.87;85.45;;
72276;Laerm;61204;49.980;8.358;2023-05-20T05:57:32;57.16;46.59;70.32;;
72276;Laerm;61204;49.980;8.358;2023-05-20T06:00:00;58.32;45.97;83.53;;
72276;Laerm;61204;49.980;8.358;2023-05-20T06:02:25;59.37;44.76;81.02;;
72276;Laerm;61204;49.980;8.358;2023-05-20T06:04:53;57.44;44.18;71.72;;
72276;Laerm;61204;49.980;8.358;2023-05-20T06:07:19;53.92;44.73;66.70;;
72276;Laerm;61204;49.980;8.358;2023-05-20T06:09:46;58.98;47.49;72.09;;
72276;Laerm;61204;49.980;8.358;2023-05-20T06:12:12;57.34;44.00;70.55;;
72276;Laerm;61204;49.980;8.358;2023-05-20T06:14:37;52.69;43.67;66.04;;
72276;Laerm;61204;49.980;8.358;2023-05-20T06:17:03;58.09;44.38;71.88;;
72276;Laerm;61204;49.980;8.358;2023-05-20T06:19:29;55.03;46.24;70.42;;
72276;Laerm;61204;49.980;8.358;2023-05-20T06:21:56;60.66;46.90;73.33;;
72276;Laerm;61204;49.980;8.358;2023-05-20T06:24:22;56.33;47.09;69.12;;
72276;Laerm;61204;49.980;8.358;2023-05-20T06:26:48;55.88;44.97;65.38;;
72276;Laerm;61204;49.980;8.358;2023-05-20T06:29:14;58.30;45.12;75.69;;
72276;Laerm;61204;49.980;8.358;2023-05-20T06:31:40;58.39;46.58;72.32;;
72276;Laerm;61204;49.980;8.358;2023-05-20T06:34:05;56.70;45.50;71.31;;
72276;Laerm;61204;49.980;8.358;2023-05-20T06:36:31;57.30;46.66;70.14;;
72276;Laerm;61204;49.980;8.358;2023-05-20T06:38:56;55.52;46.19;68.36;;
72276;Laerm;61204;49.980;8.358;2023-05-20T06:41:22;57.52;48.33;71.87;;
72276;Laerm;61204;49.980;8.358;2023-05-20T06:43:47;58.20;47.58;69.45;;
72276;Laerm;61204;49.980;8.358;2023-05-20T06:46:15;56.24;45.56;66.67;;
72276;Laerm;61204;49.980;8.358;2023-05-20T06:48:40;54.76;44.77;68.59;;
72276;Laerm;61204;49.980;8.358;2023-05-20T06:51:07;56.53;45.26;69.09;;
72276;Laerm;61204;49.980;8.358;2023-05-20T06:53:34;57.63;46.94;71.60;;
72276;Laerm;61204;49.980;8.358;2023-05-20T06:55:59;56.01;44.16;69.53;;
72276;Laerm;61204;49.980;8.358;2023-05-20T06:58:25;57.58;46.96;71.00;;
72276;Laerm;61204;49.980;8.358;2023-05-20T07:00:53;56.31;47.36;70.82;;
72276;Laerm;61204;49.980;8.358;2023-05-20T07:03:18;58.57;47.94;71.08;;
72276;Laerm;61204;49.980;8.358;2023-05-20T07:05:44;55.54;47.47;67.36;;
72276;Laerm;61204;49.980;8.358;2023-05-20T07:08:09;57.04;46.93;73.95;;
72276;Laerm;61204;49.980;8.358;2023-05-20T07:10:38;56.40;48.63;69.32;;
72276;Laerm;61204;49.980;8.358;2023-05-20T07:13:03;56.10;47.67;69.89;;
72276;Laerm;61204;49.980;8.358;2023-05-20T07:15:31;58.04;47.82;72.13;;
72276;Laerm;61204;49.980;8.358;2023-05-20T07:17:56;56.49;47.48;67.47;;
72276;Laerm;61204;49.980;8.358;2023-05-20T07:20:22;57.32;48.05;72.28;;
72276;Laerm;61204;49.980;8.358;2023-05-20T07:22:49;57.23;46.63;68.83;;
72276;Laerm;61204;49.980;8.358;2023-05-20T07:25:15;58.25;48.93;69.63;;
72276;Laerm;61204;49.980;8.358;2023-05-20T07:27:43;57.88;47.53;74.05;;
72276;Laerm;61204;49.980;8.358;2023-05-20T07:30:11;56.82;46.97;72.89;;
72276;Laerm;61204;49.980;8.358;2023-05-20T07:32:36;58.58;49.00;71.22;;
72276;Laerm;61204;49.980;8.358;2023-05-20T07:35:02;59.65;45.64;73.96;;
72276;Laerm;61204;49.980;8.358;2023-05-20T07:37:28;56.87;46.76;70.73;;
72276;Laerm;61204;49.980;8.358;2023-05-20T07:39:53;56.73;47.53;68.87;;
72276;Laerm;61204;49.980;8.358;2023-05-20T07:42:18;58.57;48.41;69.90;;
72276;Laerm;61204;49.980;8.358;2023-05-20T07:44:44;60.47;47.98;77.02;;
72276;Laerm;61204;49.980;8.358;2023-05-20T07:47:09;54.66;47.52;70.86;;
72276;Laerm;61204;49.980;8.358;2023-05-20T07:49:35;56.24;46.85;70.59;;
72276;Laerm;61204;49.980;8.358;2023-05-20T07:52:00;58.08;48.61;70.75;;
72276;Laerm;61204;49.980;8.358;2023-05-20T07:54:26;57.33;48.14;68.86;;
72276;Laerm;61204;49.980;8.358;2023-05-20T07:56:52;56.71;48.86;69.67;;
72276;Laerm;61204;49.980;8.358;2023-05-20T07:59:17;58.14;48.19;74.07;;
72276;Laerm;61204;49.980;8.358;2023-05-20T08:01:43;60.19;49.21;77.85;;
72276;Laerm;61204;49.980;8.358;2023-05-20T08:04:08;59.21;48.82;71.92;;
72276;Laerm;61204;49.980;8.358;2023-05-20T08:06:34;60.99;46.97;72.35;;
72276;Laerm;61204;49.980;8.358;2023-05-20T08:09:01;57.97;47.59;69.26;;
72276;Laerm;61204;49.980;8.358;2023-05-20T08:11:27;59.65;50.31;71.61;;
72276;Laerm;61204;49.980;8.358;2023-05-20T08:13:52;58.93;47.75;72.25;;
72276;Laerm;61204;49.980;8.358;2023-05-20T08:16:20;59.54;47.78;74.88;;
72276;Laerm;61204;49.980;8.358;2023-05-20T08:18:47;59.24;49.15;76.41;;
72276;Laerm;61204;49.980;8.358;2023-05-20T08:21:13;59.19;48.53;68.39;;
72276;Laerm;61204;49.980;8.358;2023-05-20T08:23:40;61.13;47.60;80.87;;
72276;Laerm;61204;49.980;8.358;2023-05-20T08:26:05;58.25;48.69;70.62;;
72276;Laerm;61204;49.980;8.358;2023-05-20T08:28:31;57.37;47.49;69.00;;
72276;Laerm;61204;49.980;8.358;2023-05-20T08:31:00;57.31;46.81;73.21;;
72276;Laerm;61204;49.980;8.358;2023-05-20T08:33:25;55.50;46.77;69.93;;
72276;Laerm;61204;49.980;8.358;2023-05-20T08:35:51;57.84;46.35;73.61;;
72276;Laerm;61204;49.980;8.358;2023-05-20T08:38:16;59.19;47.25;76.61;;
72276;Laerm;61204;49.980;8.358;2023-05-20T08:40:42;58.98;48.19;79.26;;
72276;Laerm;61204;49.980;8.358;2023-05-20T08:43:08;58.09;50.67;73.41;;
72276;Laerm;61204;49.980;8.358;2023-05-20T08:45:36;53.93;46.00;72.29;;
72276;Laerm;61204;49.980;8.358;2023-05-20T08:48:03;59.16;47.51;79.19;;
72276;Laerm;61204;49.980;8.358;2023-05-20T08:50:32;57.05;46.28;76.28;;
72276;Laerm;61204;49.980;8.358;2023-05-20T08:52:58;59.62;48.05;78.83;;
72276;Laerm;61204;49.980;8.358;2023-05-20T08:55:44;54.96;47.38;68.21;;
72276;Laerm;61204;49.980;8.358;2023-05-20T08:58:13;57.76;47.67;73.21;;
72276;Laerm;61204;49.980;8.358;2023-05-20T09:00:39;61.93;47.03;76.59;;
72276;Laerm;61204;49.980;8.358;2023-05-20T09:03:06;59.24;47.58;77.64;;
72276;Laerm;61204;49.980;8.358;2023-05-20T09:05:33;56.45;46.00;71.29;;
72276;Laerm;61204;49.980;8.358;2023-05-20T09:08:10;59.21;47.81;73.75;;
72276;Laerm;61204;49.980;8.358;2023-05-20T09:10:40;55.75;45.21;68.36;;
72276;Laerm;61204;49.980;8.358;2023-05-20T09:13:08;56.77;46.23;69.19;;
72276;Laerm;61204;49.980;8.358;2023-05-20T09:15:35;58.36;46.36;76.27;;
72276;Laerm;61204;49.980;8.358;2023-05-20T09:18:04;58.32;46.12;73.91;;
72276;Laerm;61204;49.980;8.358;2023-05-20T09:20:33;59.75;46.96;73.28;;
72276;Laerm;61204;49.980;8.358;2023-05-20T09:23:00;57.16;46.16;69.62;;
72276;Laerm;61204;49.980;8.358;2023-05-20T09:25:26;56.56;46.71;68.91;;
72276;Laerm;61204;49.980;8.358;2023-05-20T09:27:53;58.35;46.72;72.21;;
72276;Laerm;61204;49.980;8.358;2023-05-20T09:30:20;59.55;47.56;71.50;;
72276;Laerm;61204;49.980;8.358;2023-05-20T09:32:57;58.37;44.45;78.39;;
72276;Laerm;61204;49.980;8.358;2023-05-20T09:35:24;56.83;45.76;69.38;;
72276;Laerm;61204;49.980;8.358;2023-05-20T09:37:55;56.87;44.98;67.37;;
72276;Laerm;61204;49.980;8.358;2023-05-20T09:40:28;60.34;45.60;74.80;;
72276;Laerm;61204;49.980;8.358;2023-05-20T09:43:00;60.25;44.22;81.85;;
72276;Laerm;61204;49.980;8.358;2023-05-20T09:45:27;59.45;45.61;77.04;;
72276;Laerm;61204;49.980;8.358;2023-05-20T09:47:54;52.67;46.01;74.52;;
72276;Laerm;61204;49.980;8.358;2023-05-20T09:50:22;58.58;45.87;79.62;;
72276;Laerm;61204;49.980;8.358;2023-05-20T09:52:51;56.45;45.64;73.00;;
72276;Laerm;61204;49.980;8.358;2023-05-20T09:55:19;58.95;45.70;72.85;;
72276;Laerm;61204;49.980;8.358;2023-05-20T09:57:45;60.10;45.27;78.52;;
72276;Laerm;61204;49.980;8.358;2023-05-20T10:00:13;57.81;45.13;75.66;;
72276;Laerm;61204;49.980;8.358;2023-05-20T10:02:47;57.80;46.50;77.26;;
72276;Laerm;61204;49.980;8.358;2023-05-20T10:05:30;59.30;45.66;78.93;;
72276;Laerm;61204;49.980;8.358;2023-05-20T10:10:44;60.03;45.13;74.69;;
72276;Laerm;61204;49.980;8.358;2023-05-20T10:13:37;59.96;46.04;84.44;;
72276;Laerm;61204;49.980;8.358;2023-05-20T10:19:27;60.09;46.61;79.10;;
72276;Laerm;61204;49.980;8.358;2023-05-20T10:22:08;57.17;46.65;71.09;;
72276;Laerm;61204;49.980;8.358;2023-05-20T10:24:40;62.21;47.71;77.63;;
72276;Laerm;61204;49.980;8.358;2023-05-20T10:27:11;60.05;47.22;84.59;;
72276;Laerm;61204;49.980;8.358;2023-05-20T10:29:53;55.96;45.26;73.67;;
72276;Laerm;61204;49.980;8.358;2023-05-20T10:32:30;58.83;46.09;75.43;;
72276;Laerm;61204;49.980;8.358;2023-05-20T10:35:02;58.27;45.69;73.13;;
72276;Laerm;61204;49.980;8.358;2023-05-20T10:37:41;56.88;44.34;72.16;;
72276;Laerm;61204;49.980;8.358;2023-05-20T10:40:13;60.12;46.54;78.37;;
72276;Laerm;61204;49.980;8.358;2023-05-20T10:42:41;61.56;44.25;82.76;;
72276;Laerm;61204;49.980;8.358;2023-05-20T10:45:08;57.09;44.99;77.78;;
72276;Laerm;61204;49.980;8.358;2023-05-20T10:47:35;55.00;45.70;67.51;;
72276;Laerm;61204;49.980;8.358;2023-05-20T10:50:01;56.76;44.39;72.38;;
72276;Laerm;61204;49.980;8.358;2023-05-20T10:52:35;57.60;42.65;74.63;;
72276;Laerm;61204;49.980;8.358;2023-05-20T10:55:01;59.02;43.93;76.71;;
72276;Laerm;61204;49.980;8.358;2023-05-20T10:57:28;57.25;47.01;71.47;;
72276;Laerm;61204;49.980;8.358;2023-05-20T10:59:55;56.06;45.74;70.76;;
72276;Laerm;61204;49.980;8.358;2023-05-20T11:02:23;55.35;45.35;71.53;;
72276;Laerm;61204;49.980;8.358;2023-05-20T11:04:55;58.51;45.20;74.33;;
72276;Laerm;61204;49.980;8.358;2023-05-20T11:07:30;56.99;45.30;77.16;;
72276;Laerm;61204;49.980;8.358;2023-05-20T11:09:57;62.64;45.27;77.13;;
72276;Laerm;61204;49.980;8.358;2023-05-20T11:12:26;54.90;44.21;66.71;;
72276;Laerm;61204;49.980;8.358;2023-05-20T11:14:52;56.80;46.18;73.31;;
72276;Laerm;61204;49.980;8.358;2023-05-20T11:17:18;58.52;44.78;74.04;;
72276;Laerm;61204;49.980;8.358;2023-05-20T11:19:46;56.95;43.79;71.83;;
72276;Laerm;61204;49.980;8.358;2023-05-20T11:22:12;63.39;46.32;81.12;;
72276;Laerm;61204;49.980;8.358;2023-05-20T11:24:37;59.90;45.98;76.45;;
72276;Laerm;61204;49.980;8.358;2023-05-20T11:27:03;56.96;45.39;75.00;;
72276;Laerm;61204;49.980;8.358;2023-05-20T11:29:29;55.80;45.48;74.41;;
72276;Laerm;61204;49.980;8.358;2023-05-20T11:31:59;59.70;45.13;73.99;;
72276;Laerm;61204;49.980;8.358;2023-05-20T11:34:32;59.98;44.51;81.35;;
72276;Laerm;61204;49.980;8.358;2023-05-20T11:36:58;60.10;46.55;74.36;;
72276;Laerm;61204;49.980;8.358;2023-05-20T11:39:29;55.28;44.54;71.01;;
72276;Laerm;61204;49.980;8.358;2023-05-20T11:41:54;55.64;44.11;68.67;;
72276;Laerm;61204;49.980;8.358;2023-05-20T11:44:20;59.34;46.46;72.19;;
72276;Laerm;61204;49.980;8.358;2023-05-20T11:46:47;61.42;47.66;80.48;;
72276;Laerm;61204;49.980;8.358;2023-05-20T11:49:14;58.41;46.19;69.90;;
72276;Laerm;61204;49.980;8.358;2023-05-20T11:51:42;54.40;45.66;71.27;;
72276;Laerm;61204;49.980;8.358;2023-05-20T11:54:11;57.92;45.80;73.83;;
72276;Laerm;61204;49.980;8.358;2023-05-20T11:56:39;50.81;45.50;71.02;;
72276;Laerm;61204;49.980;8.358;2023-05-20T11:59:08;57.65;45.42;74.04;;
72276;Laerm;61204;49.980;8.358;2023-05-20T12:01:37;55.76;43.53;69.96;;
72276;Laerm;61204;49.980;8.358;2023-05-20T12:04:08;55.09;44.50;69.21;;
72276;Laerm;61204;49.980;8.358;2023-05-20T12:06:35;58.88;45.29;73.84;;
72276;Laerm;61204;49.980;8.358;2023-05-20T12:09:06;59.45;43.62;69.21;;
72276;Laerm;61204;49.980;8.358;2023-05-20T12:11:39;61.05;48.00;78.07;;
72276;Laerm;61204;49.980;8.358;2023-05-20T12:14:08;55.72;44.56;76.66;;
72276;Laerm;61204;49.980;8.358;2023-05-20T12:16:35;58.32;45.47;76.53;;
72276;Laerm;61204;49.980;8.358;2023-05-20T12:19:01;60.40;46.42;77.70;;
72276;Laerm;61204;49.980;8.358;2023-05-20T12:21:29;58.40;45.99;80.63;;
72276;Laerm;61204;49.980;8.358;2023-05-20T12:23:57;52.06;43.50;72.13;;
72276;Laerm;61204;49.980;8.358;2023-05-20T12:26:24;50.89;44.33;72.15;;
72276;Laerm;61204;49.980;8.358;2023-05-20T12:28:50;56.98;46.08;73.98;;
72276;Laerm;61204;49.980;8.358;2023-05-20T12:31:16;65.93;44.55;87.83;;
72276;Laerm;61204;49.980;8.358;2023-05-20T12:33:41;57.44;45.54;75.72;;
72276;Laerm;61204;49.980;8.358;2023-05-20T12:36:07;57.98;45.22;71.12;;
72276;Laerm;61204;49.980;8.358;2023-05-20T12:38:33;62.57;45.26;77.43;;
72276;Laerm;61204;49.980;8.358;2023-05-20T12:40:58;59.19;45.15;81.13;;
72276;Laerm;61204;49.980;8.358;2023-05-20T12:43:24;56.21;45.10;68.29;;
72276;Laerm;61204;49.980;8.358;2023-05-20T12:45:55;57.36;45.01;71.28;;
72276;Laerm;61204;49.980;8.358;2023-05-20T12:48:21;55.37;44.58;71.80;;
72276;Laerm;61204;49.980;8.358;2023-05-20T12:50:46;59.13;45.96;74.67;;
72276;Laerm;61204;49.980;8.358;2023-05-20T12:53:14;61.22;44.96;75.48;;
72276;Laerm;61204;49.980;8.358;2023-05-20T12:55:39;59.02;45.67;76.84;;
72276;Laerm;61204;49.980;8.358;2023-05-20T12:58:05;58.13;45.58;75.77;;
72276;Laerm;61204;49.980;8.358;2023-05-20T13:00:33;50.49;43.15;67.72;;
72276;Laerm;61204;49.980;8.358;2023-05-20T13:02:59;55.29;44.02;72.06;;
72276;Laerm;61204;49.980;8.358;2023-05-20T13:05:25;59.41;44.44;71.29;;
72276;Laerm;61204;49.980;8.358;2023-05-20T13:07:50;58.84;45.22;81.18;;
72276;Laerm;61204;49.980;8.358;2023-05-20T13:10:16;61.26;44.70;77.43;;
72276;Laerm;61204;49.980;8.358;2023-05-20T13:12:42;59.20;44.49;74.07;;
72276;Laerm;61204;49.980;8.358;2023-05-20T13:15:13;55.24;44.07;67.02;;
72276;Laerm;61204;49.980;8.358;2023-05-20T13:17:39;58.53;45.16;72.86;;
72276;Laerm;61204;49.980;8.358;2023-05-20T13:20:06;58.94;45.78;76.05;;
72276;Laerm;61204;49.980;8.358;2023-05-20T13:22:32;63.80;45.40;89.94;;
72276;Laerm;61204;49.980;8.358;2023-05-20T13:24:57;58.07;44.72;77.61;;
72276;Laerm;61204;49.980;8.358;2023-05-20T13:27:26;57.85;44.81;76.11;;
72276;Laerm;61204;49.980;8.358;2023-05-20T13:29:52;64.28;44.73;79.68;;
72276;Laerm;61204;49.980;8.358;2023-05-20T13:32:17;59.89;43.81;80.59;;
72276;Laerm;61204;49.980;8.358;2023-05-20T13:34:43;62.56;45.67;76.09;;
72276;Laerm;61204;49.980;8.358;2023-05-20T13:37:08;58.21;46.03;72.32;;
72276;Laerm;61204;49.980;8.358;2023-05-20T13:39:34;58.04;43.85;72.79;;
72276;Laerm;61204;49.980;8.358;2023-05-20T13:42:00;57.30;45.11;70.36;;
72276;Laerm;61204;49.980;8.358;2023-05-20T13:44:26;58.58;45.37;71.75;;
72276;Laerm;61204;49.980;8.358;2023-05-20T13:46:54;64.99;46.28;82.86;;
72276;Laerm;61204;49.980;8.358;2023-05-20T13:49:20;63.27;47.09;76.05;;
72276;Laerm;61204;49.980;8.358;2023-05-20T13:51:46;55.77;44.50;73.04;;
72276;Laerm;61204;49.980;8.358;2023-05-20T13:54:13;58.71;45.15;76.23;;